createdAt,value
2023-01-10T00:02:26.419Z,10.25
2023-01-10T00:04:53.229Z,10.28
2023-01-10T00:07:19.922Z,10.35
2023-01-10T00:09:46.602Z,10.13
2023-01-10T00:12:31.942Z,10.01
2023-01-10T00:14:58.590Z,10.00
2023-01-10T00:17:25.223Z,9.96
2023-01-10T00:19:51.894Z,10.01
2023-01-10T00:22:21.362Z,10.06
2023-01-10T00:24:48.189Z,10.06
2023-01-10T00:27:20.628Z,10.15
2023-01-10T00:29:47.303Z,10.32
2023-01-10T00:32:13.893Z,10.36
2023-01-10T00:34:40.704Z,10.47
2023-01-10T00:37:07.310Z,10.46
2023-01-10T00:39:34.002Z,10.10
2023-01-10T00:42:19.174Z,10.03
2023-01-10T00:44:46.873Z,10.05
2023-01-10T00:47:13.808Z,10.25
2023-01-10T00:49:40.960Z,10.15
2023-01-10T00:52:07.910Z,10.19
2023-01-10T00:54:34.565Z,10.06
2023-01-10T00:57:01.297Z,10.07
2023-01-10T00:59:29.443Z,10.04
2023-01-10T01:01:56.190Z,9.81
2023-01-10T01:04:23.133Z,9.53
2023-01-10T01:06:50.767Z,9.39
2023-01-10T01:09:17.904Z,9.65
2023-01-10T01:11:44.696Z,9.49
2023-01-10T01:14:11.411Z,9.62
2023-01-10T01:16:38.209Z,9.72
2023-01-10T01:19:04.951Z,9.71
2023-01-10T01:21:31.778Z,9.69
2023-01-10T01:23:58.472Z,9.49
2023-01-10T01:26:25.557Z,9.59
2023-01-10T01:28:52.698Z,9.50
2023-01-10T01:31:19.500Z,9.78
2023-01-10T01:33:46.503Z,9.45
2023-01-10T01:36:13.652Z,9.49
2023-01-10T01:38:41.915Z,9.56
2023-01-10T01:41:28.775Z,9.78
2023-01-10T01:44:07.787Z,9.53
2023-01-10T01:46:38.443Z,9.56
2023-01-10T01:49:13.412Z,9.75
2023-01-10T01:51:40.255Z,9.98
2023-01-10T01:54:11.937Z,9.69
2023-01-10T01:56:42.818Z,9.68
2023-01-10T01:59:20.444Z,9.65
2023-01-10T02:01:50.726Z,9.69
2023-01-10T02:04:22.258Z,9.72
2023-01-10T02:06:52.166Z,9.88
2023-01-10T02:09:39.827Z,10.09
2023-01-10T02:12:07.857Z,9.51
2023-01-10T02:14:36.005Z,9.67
2023-01-10T02:17:02.653Z,9.63
2023-01-10T02:19:44.657Z,9.66
2023-01-10T02:22:29.386Z,9.83
2023-01-10T02:24:58.718Z,9.75
2023-01-10T02:27:51.402Z,9.55
2023-01-10T02:30:27.198Z,9.78
2023-01-10T02:33:15.875Z,9.50
2023-01-10T02:36:25.196Z,9.43
2023-01-10T02:39:04.834Z,9.45
2023-01-10T02:41:34.279Z,9.69
2023-01-10T02:44:07.050Z,9.71
2023-01-10T02:46:35.357Z,9.87
2023-01-10T02:49:01.981Z,9.98
2023-01-10T02:51:30.665Z,9.65
2023-01-10T02:54:16.280Z,9.88
2023-01-10T02:56:56.392Z,9.95
2023-01-10T02:59:33.230Z,9.76
2023-01-10T03:02:02.877Z,9.89
2023-01-10T03:04:53.479Z,9.50
2023-01-10T03:07:33.529Z,9.83
2023-01-10T03:10:05.896Z,9.74
2023-01-10T03:12:40.207Z,9.59
2023-01-10T03:15:10.377Z,9.82
2023-01-10T03:17:39.220Z,9.81
2023-01-10T03:20:09.936Z,9.90
2023-01-10T03:22:39.593Z,9.73
2023-01-10T03:25:09.463Z,9.87
2023-01-10T03:27:55.771Z,9.84
2023-01-10T03:30:33.038Z,9.77
2023-01-10T03:33:00.214Z,9.64
2023-01-10T03:35:46.311Z,9.85
2023-01-10T03:38:26.101Z,9.39
2023-01-10T03:41:03.488Z,9.42
2023-01-10T03:44:02.997Z,9.21
2023-01-10T03:46:35.678Z,9.30
2023-01-10T03:49:04.571Z,9.44
2023-01-10T03:51:32.825Z,9.45
2023-01-10T03:54:01.625Z,9.40
2023-01-10T03:56:28.345Z,9.15
2023-01-10T03:58:55.676Z,9.41
2023-01-10T04:01:22.523Z,9.25
2023-01-10T04:03:49.367Z,9.43
2023-01-10T04:06:17.567Z,9.37
2023-01-10T04:08:44.497Z,9.52
2023-01-10T04:11:11.137Z,9.56
2023-01-10T04:13:37.800Z,9.75
2023-01-10T04:16:04.580Z,9.76
2023-01-10T04:18:31.230Z,9.76
2023-01-10T04:20:57.960Z,9.75
2023-01-10T04:23:24.605Z,9.71
2023-01-10T04:25:51.203Z,9.83
2023-01-10T04:28:17.968Z,9.82
2023-01-10T04:30:44.648Z,9.77
2023-01-10T04:33:12.524Z,9.81
2023-01-10T04:35:39.289Z,9.92
2023-01-10T04:38:05.994Z,10.01
2023-01-10T04:40:32.623Z,10.04
2023-01-10T04:42:59.263Z,10.06
2023-01-10T04:45:26.094Z,9.75
2023-01-10T04:47:55.973Z,9.92
2023-01-10T04:50:23.828Z,9.99
2023-01-10T04:52:50.442Z,9.89
2023-01-10T04:55:17.204Z,9.74
2023-01-10T04:57:44.399Z,9.86
2023-01-10T05:00:12.305Z,9.76
2023-01-10T05:02:43.963Z,9.95
2023-01-10T05:05:12.052Z,9.94
2023-01-10T05:07:39.362Z,10.03
2023-01-10T05:10:08.084Z,9.73
2023-01-10T05:12:34.831Z,9.81
2023-01-10T05:15:01.446Z,9.98
2023-01-10T05:17:28.134Z,9.89
2023-01-10T05:19:54.798Z,10.03
2023-01-10T05:22:21.532Z,9.96
2023-01-10T05:24:48.369Z,10.01
2023-01-10T05:27:15.004Z,9.98
2023-01-10T05:29:41.799Z,10.10
2023-01-10T05:32:08.789Z,9.99
2023-01-10T05:34:38.561Z,9.95
2023-01-10T05:37:05.328Z,9.95
2023-01-10T05:39:31.982Z,10.16
2023-01-10T05:41:58.672Z,10.17
2023-01-10T05:44:25.286Z,10.04
2023-01-10T05:46:51.941Z,10.15
2023-01-10T05:49:18.567Z,10.17
2023-01-10T05:51:45.320Z,9.99
2023-01-10T05:54:11.939Z,9.77
2023-01-10T05:56:38.796Z,10.04
2023-01-10T05:59:14.018Z,10.05
2023-01-10T06:01:50.519Z,10.10
2023-01-10T06:04:17.250Z,9.96
2023-01-10T06:06:43.922Z,9.92
2023-01-10T06:09:10.571Z,9.96
2023-01-10T06:11:38.867Z,9.87
2023-01-10T06:14:07.188Z,9.90
2023-01-10T06:16:33.948Z,9.87
2023-01-10T06:19:00.705Z,9.66
2023-01-10T06:21:27.457Z,9.81
2023-01-10T06:23:54.219Z,9.77
2023-01-10T06:26:20.900Z,9.81
2023-01-10T06:28:47.564Z,10.00
2023-01-10T06:31:14.985Z,9.78
2023-01-10T06:33:43.877Z,9.72
2023-01-10T06:36:11.295Z,9.61
2023-01-10T06:38:38.082Z,9.78
2023-01-10T06:41:12.840Z,9.82
2023-01-10T06:43:47.828Z,9.88
2023-01-10T06:46:19.358Z,9.56
2023-01-10T06:48:46.929Z,9.72
2023-01-10T06:51:15.501Z,9.85
2023-01-10T06:53:43.044Z,9.70
2023-01-10T06:56:10.305Z,9.92
2023-01-10T06:58:41.383Z,10.01
2023-01-10T07:01:14.904Z,10.06
2023-01-10T07:03:41.939Z,10.01
2023-01-10T07:06:10.208Z,9.76
2023-01-10T07:08:42.217Z,9.82
2023-01-10T07:11:09.809Z,9.71
2023-01-10T07:13:37.023Z,9.61
2023-01-10T07:16:04.558Z,9.73
2023-01-10T07:18:32.083Z,9.69
2023-01-10T07:20:58.737Z,9.76
2023-01-10T07:23:25.450Z,9.70
2023-01-10T07:25:52.732Z,9.65
2023-01-10T07:28:19.498Z,9.74
2023-01-10T07:30:46.139Z,9.74
2023-01-10T07:33:12.769Z,9.90
2023-01-10T07:35:39.612Z,9.59
2023-01-10T07:38:06.533Z,9.83
2023-01-10T07:40:33.197Z,9.91
2023-01-10T07:43:01.360Z,9.59
2023-01-10T07:45:29.948Z,9.50
2023-01-10T07:47:58.143Z,9.69
2023-01-10T07:50:25.651Z,9.71
2023-01-10T07:52:52.458Z,9.75
2023-01-10T07:55:19.100Z,9.71
2023-01-10T07:57:45.841Z,9.80
2023-01-10T08:00:13.236Z,9.95
2023-01-10T08:02:39.939Z,9.37
2023-01-10T08:05:07.362Z,9.80
2023-01-10T08:07:34.132Z,9.80
2023-01-10T08:10:00.747Z,9.84
2023-01-10T08:12:27.407Z,9.98
2023-01-10T08:14:54.298Z,10.05
2023-01-10T08:17:20.924Z,9.77
2023-01-10T08:19:47.549Z,9.99
2023-01-10T08:22:14.379Z,9.93
2023-01-10T08:24:41.034Z,9.79
2023-01-10T08:27:07.937Z,9.29
2023-01-10T08:29:34.672Z,9.32
2023-01-10T08:32:01.364Z,9.37
2023-01-10T08:34:28.147Z,9.53
2023-01-10T08:36:55.192Z,9.43
2023-01-10T08:39:22.833Z,9.54
2023-01-10T08:41:49.699Z,9.56
2023-01-10T08:44:16.624Z,9.75
2023-01-10T08:46:43.391Z,9.53
2023-01-10T08:49:10.069Z,9.43
2023-01-10T08:51:36.975Z,9.21
2023-01-10T08:54:03.983Z,9.37
2023-01-10T08:56:30.666Z,9.28
2023-01-10T08:58:57.355Z,9.38
2023-01-10T09:01:24.112Z,9.34
2023-01-10T09:03:50.818Z,9.29
2023-01-10T09:06:17.567Z,9.24
2023-01-10T09:08:44.222Z,9.47
2023-01-10T09:11:10.910Z,9.73
2023-01-10T09:13:37.633Z,10.01
2023-01-10T09:16:04.783Z,10.05
2023-01-10T09:18:31.754Z,10.18
2023-01-10T09:20:58.437Z,10.00
2023-01-10T09:23:25.394Z,10.05
2023-01-10T09:25:54.364Z,10.03
2023-01-10T09:28:22.283Z,9.98
2023-01-10T09:30:49.076Z,9.96
2023-01-10T09:33:16.350Z,9.85
2023-01-10T09:35:43.770Z,9.91
2023-01-10T09:38:14.666Z,9.89
2023-01-10T09:41:07.587Z,10.06
2023-01-10T09:43:36.983Z,10.17
2023-01-10T09:46:25.489Z,9.91
2023-01-10T09:49:08.952Z,9.74
2023-01-10T09:51:40.477Z,9.85
2023-01-10T09:54:13.455Z,9.44
2023-01-10T09:56:40.766Z,9.71
2023-01-10T09:59:21.174Z,9.56
2023-01-10T10:01:52.844Z,9.53
2023-01-10T10:04:29.419Z,9.87
2023-01-10T10:06:56.397Z,10.05
2023-01-10T10:09:30.050Z,9.83
2023-01-10T10:12:30.990Z,10.23
2023-01-10T10:15:04.031Z,10.42
2023-01-10T10:17:36.644Z,10.30
2023-01-10T10:20:23.115Z,10.35
2023-01-10T10:23:11.376Z,10.13
2023-01-10T10:25:50.330Z,10.21
2023-01-10T10:28:31.749Z,10.03
2023-01-10T10:31:14.970Z,10.17
2023-01-10T10:33:48.958Z,10.36
2023-01-10T10:36:23.862Z,10.60
2023-01-10T10:38:53.346Z,10.40
2023-01-10T10:41:37.098Z,10.60
2023-01-10T10:44:28.974Z,10.73
2023-01-10T10:46:58.835Z,10.78
2023-01-10T10:49:49.763Z,10.95
2023-01-10T10:52:30.678Z,11.05
2023-01-10T10:54:58.560Z,10.95
2023-01-10T10:57:28.688Z,10.78
2023-01-10T10:59:56.695Z,10.35
2023-01-10T11:02:29.485Z,10.25
2023-01-10T11:05:06.490Z,10.34
2023-01-10T11:07:36.974Z,10.58
2023-01-10T11:10:20.581Z,10.77
2023-01-10T11:12:51.309Z,10.82
2023-01-10T11:15:48.160Z,10.87
2023-01-10T11:18:17.590Z,10.60
2023-01-10T11:20:49.301Z,11.05
2023-01-10T11:23:30.241Z,11.34
2023-01-10T11:25:57.013Z,11.40
2023-01-10T11:28:31.453Z,11.26
2023-01-10T11:30:59.574Z,11.38
2023-01-10T11:33:30.739Z,11.49
2023-01-10T11:36:15.914Z,11.38
2023-01-10T11:38:42.528Z,11.58
2023-01-10T11:41:18.413Z,11.23
2023-01-10T11:43:45.237Z,11.30
2023-01-10T11:46:26.124Z,11.07
2023-01-10T11:49:08.340Z,11.66
2023-01-10T11:51:44.594Z,11.86
2023-01-10T11:54:16.406Z,11.86
2023-01-10T11:56:54.135Z,12.14
2023-01-10T11:59:20.930Z,12.10
2023-01-10T12:02:05.499Z,12.48
2023-01-10T12:04:39.553Z,12.31
2023-01-10T12:07:10.764Z,11.93
2023-01-10T12:09:43.632Z,11.94
2023-01-10T12:12:10.201Z,11.94
2023-01-10T12:14:36.833Z,12.12
2023-01-10T12:17:03.872Z,12.25
2023-01-10T12:19:30.867Z,11.72
2023-01-10T12:22:03.740Z,12.20
2023-01-10T12:24:35.874Z,12.26
2023-01-10T12:27:03.764Z,12.44
2023-01-10T12:29:40.609Z,12.03
2023-01-10T12:32:18.638Z,12.23
2023-01-10T12:34:50.419Z,12.38
2023-01-10T12:37:30.384Z,12.59
2023-01-10T12:40:10.307Z,12.74
2023-01-10T12:43:10.042Z,12.48
2023-01-10T12:46:02.924Z,12.40
2023-01-10T12:48:41.334Z,11.75
2023-01-10T12:51:15.160Z,12.28
2023-01-10T12:53:48.482Z,12.21
2023-01-10T12:56:18.751Z,12.10
2023-01-10T12:58:50.820Z,12.13
2023-01-10T13:01:22.364Z,12.31
2023-01-10T13:03:57.584Z,11.93
2023-01-10T13:06:32.029Z,12.00
2023-01-10T13:09:03.738Z,11.96
2023-01-10T13:11:37.200Z,12.20
2023-01-10T13:14:06.160Z,11.79
2023-01-10T13:16:50.321Z,11.68
2023-01-10T13:19:19.837Z,11.71
2023-01-10T13:21:47.257Z,11.92
2023-01-10T13:24:28.511Z,11.81
2023-01-10T13:26:58.379Z,12.04
2023-01-10T13:29:28.947Z,11.98
2023-01-10T13:32:01.527Z,12.16
2023-01-10T13:34:34.418Z,12.37
2023-01-10T13:37:12.456Z,12.19
2023-01-10T13:39:46.437Z,12.33
2023-01-10T13:42:44.995Z,12.36
2023-01-10T13:45:13.300Z,12.24
2023-01-10T13:47:40.041Z,11.98
2023-01-10T13:50:33.875Z,12.06
2023-01-10T13:53:12.692Z,11.98
2023-01-10T13:55:39.323Z,12.25
2023-01-10T13:58:19.836Z,11.79
2023-01-10T14:01:09.429Z,11.75
2023-01-10T14:03:59.161Z,11.69
2023-01-10T14:06:28.926Z,11.78
2023-01-10T14:09:03.648Z,11.47
2023-01-10T14:11:45.503Z,11.98
2023-01-10T14:14:23.979Z,11.84
2023-01-10T14:16:56.712Z,11.87
2023-01-10T14:19:34.038Z,11.87
2023-01-10T14:22:03.050Z,12.00
2023-01-10T14:24:40.116Z,11.81
2023-01-10T14:27:13.343Z,11.83
2023-01-10T14:29:47.777Z,11.78
2023-01-10T14:32:43.989Z,11.96
2023-01-10T14:35:17.444Z,11.86
2023-01-10T14:37:50.343Z,12.06
2023-01-10T14:40:29.025Z,12.04
2023-01-10T14:43:00.007Z,12.01
2023-01-10T14:46:08.615Z,12.15
2023-01-10T14:48:51.598Z,11.76
2023-01-10T14:51:23.628Z,11.63
2023-01-10T14:54:02.576Z,11.83
2023-01-10T14:56:49.577Z,11.74
2023-01-10T14:59:36.899Z,11.12
2023-01-10T15:02:14.807Z,11.46
2023-01-10T15:04:53.055Z,11.25
2023-01-10T15:07:22.821Z,11.26
2023-01-10T15:09:51.621Z,11.52
2023-01-10T15:12:20.423Z,11.42
2023-01-10T15:14:50.130Z,11.56
2023-01-10T15:17:22.459Z,11.63
2023-01-10T15:19:52.327Z,11.49
2023-01-10T15:22:29.743Z,11.58
2023-01-10T15:25:25.522Z,11.51
2023-01-10T15:27:53.052Z,11.20
2023-01-10T15:30:29.550Z,11.14
2023-01-10T15:33:04.603Z,11.45
2023-01-10T15:35:36.749Z,11.48
2023-01-10T15:38:11.897Z,11.39
2023-01-10T15:40:39.912Z,11.40
2023-01-10T15:43:18.473Z,11.39
2023-01-10T15:45:46.862Z,11.04
2023-01-10T15:48:28.902Z,10.93
2023-01-10T15:51:11.665Z,10.80
2023-01-10T15:54:03.451Z,10.86
2023-01-10T15:56:38.164Z,10.75
2023-01-10T15:59:19.384Z,10.92
2023-01-10T16:01:57.713Z,11.07
2023-01-10T16:04:24.980Z,10.70
2023-01-10T16:07:05.816Z,10.87
2023-01-10T16:09:32.684Z,11.04
2023-01-10T16:12:18.292Z,11.00
2023-01-10T16:14:45.032Z,11.03
2023-01-10T16:17:12.520Z,10.94
2023-01-10T16:19:39.280Z,10.60
2023-01-10T16:22:06.182Z,10.59
2023-01-10T16:24:35.849Z,10.65
2023-01-10T16:27:06.033Z,10.81
2023-01-10T16:29:33.783Z,10.92
2023-01-10T16:32:00.522Z,10.70
2023-01-10T16:34:27.275Z,10.67
2023-01-10T16:36:53.915Z,10.55
2023-01-10T16:39:23.353Z,10.67
2023-01-10T16:42:08.865Z,10.73
2023-01-10T16:44:35.955Z,10.89
2023-01-10T16:47:06.635Z,10.90
2023-01-10T16:49:33.587Z,10.81
2023-01-10T16:52:00.425Z,10.39
2023-01-10T16:54:28.201Z,10.66
2023-01-10T16:56:55.404Z,10.74
2023-01-10T16:59:22.104Z,10.14
2023-01-10T17:01:55.287Z,10.47
2023-01-10T17:04:35.473Z,10.32
2023-01-10T17:07:02.319Z,10.40
2023-01-10T17:09:31.025Z,10.28
2023-01-10T17:12:04.340Z,10.26
2023-01-10T17:14:33.935Z,10.26
2023-01-10T17:17:03.147Z,10.41
2023-01-10T17:19:30.164Z,10.34
2023-01-10T17:21:56.840Z,10.59
2023-01-10T17:24:23.640Z,10.46
2023-01-10T17:26:50.543Z,10.38
2023-01-10T17:29:17.255Z,10.11
2023-01-10T17:31:43.938Z,10.24
2023-01-10T17:34:10.576Z,10.28
2023-01-10T17:36:39.497Z,10.44
2023-01-10T17:39:06.949Z,10.20
2023-01-10T17:41:34.393Z,10.51
2023-01-10T17:44:01.626Z,10.43
2023-01-10T17:46:29.601Z,10.62
2023-01-10T17:48:56.548Z,10.59
2023-01-10T17:51:24.671Z,10.24
2023-01-10T17:53:54.048Z,10.34
2023-01-10T17:56:20.952Z,10.36
2023-01-10T17:58:47.776Z,10.47
2023-01-10T18:01:25.172Z,10.14
2023-01-10T18:03:52.970Z,10.24
2023-01-10T18:06:24.053Z,9.93
2023-01-10T18:08:51.601Z,10.15
2023-01-10T18:11:18.244Z,10.35
2023-01-10T18:13:44.963Z,10.04
2023-01-10T18:16:11.597Z,9.87
2023-01-10T18:18:38.984Z,10.13
2023-01-10T18:21:12.905Z,10.35
2023-01-10T18:23:39.700Z,10.31
2023-01-10T18:26:09.375Z,10.13
2023-01-10T18:28:42.769Z,10.11
2023-01-10T18:31:18.527Z,10.25
2023-01-10T18:33:46.784Z,10.23
2023-01-10T18:36:19.508Z,10.18
2023-01-10T18:38:46.414Z,10.19
2023-01-10T18:41:13.943Z,10.15
2023-01-10T18:43:40.721Z,10.02
2023-01-10T18:46:14.037Z,10.15
2023-01-10T18:48:41.068Z,9.66
2023-01-10T18:51:10.019Z,10.00
2023-01-10T18:53:36.814Z,10.05
2023-01-10T18:56:04.868Z,10.04
2023-01-10T18:58:34.670Z,9.90
2023-01-10T19:01:16.357Z,9.78
2023-01-10T19:03:44.699Z,9.95
2023-01-10T19:06:15.983Z,9.67
2023-01-10T19:08:43.836Z,9.68
2023-01-10T19:11:16.572Z,9.49
2023-01-10T19:13:48.032Z,9.65
2023-01-10T19:16:26.817Z,9.70
2023-01-10T19:19:08.990Z,9.92
2023-01-10T19:21:38.023Z,9.87
2023-01-10T19:24:08.396Z,9.83
2023-01-10T19:26:35.090Z,9.67
2023-01-10T19:29:04.868Z,9.77
2023-01-10T19:31:31.981Z,9.42
2023-01-10T19:34:00.063Z,9.82
2023-01-10T19:36:27.388Z,9.77
2023-01-10T19:38:58.531Z,9.79
2023-01-10T19:41:26.642Z,9.56
2023-01-10T19:43:58.871Z,9.41
2023-01-10T19:46:26.207Z,9.54
2023-01-10T19:48:55.867Z,9.92
2023-01-10T19:51:22.840Z,9.99
2023-01-10T19:53:49.850Z,9.96
2023-01-10T19:56:21.736Z,9.63
2023-01-10T19:58:49.645Z,10.01
2023-01-10T20:01:22.775Z,10.01
2023-01-10T20:03:49.942Z,10.14
2023-01-10T20:06:20.750Z,10.16
2023-01-10T20:08:48.686Z,10.02
2023-01-10T20:11:16.390Z,9.56
2023-01-10T20:13:45.085Z,9.98
2023-01-10T20:16:13.750Z,9.82
2023-01-10T20:18:41.531Z,9.76
2023-01-10T20:21:10.488Z,10.03
2023-01-10T20:23:38.900Z,9.64
2023-01-10T20:26:10.295Z,9.95
2023-01-10T20:28:37.832Z,9.83
2023-01-10T20:31:05.309Z,9.95
2023-01-10T20:33:34.504Z,9.98
2023-01-10T20:36:04.304Z,9.54
2023-01-10T20:38:32.842Z,9.70
2023-01-10T20:41:03.191Z,10.07
2023-01-10T20:43:30.004Z,9.76
2023-01-10T20:45:56.775Z,9.92
2023-01-10T20:48:23.621Z,9.93
2023-01-10T20:50:50.379Z,9.96
2023-01-10T20:53:17.283Z,10.15
2023-01-10T20:55:46.846Z,9.91
2023-01-10T20:58:17.567Z,10.18
2023-01-10T21:00:44.408Z,9.92
2023-01-10T21:03:11.234Z,9.86
2023-01-10T21:05:38.834Z,10.00
2023-01-10T21:08:05.525Z,10.14
2023-01-10T21:10:32.183Z,10.00
2023-01-10T21:12:58.849Z,9.86
2023-01-10T21:15:25.454Z,10.18
2023-01-10T21:17:53.062Z,10.26
2023-01-10T21:20:19.773Z,10.38
2023-01-10T21:22:46.679Z,10.12
2023-01-10T21:25:13.504Z,10.21
2023-01-10T21:27:40.229Z,10.42
2023-01-10T21:30:09.065Z,10.03
2023-01-10T21:32:35.834Z,9.82
2023-01-10T21:35:02.499Z,10.20
2023-01-10T21:37:29.254Z,10.46
2023-01-10T21:39:56.116Z,10.18
2023-01-10T21:42:34.910Z,10.34
2023-01-10T21:45:02.168Z,10.16
2023-01-10T21:47:28.901Z,10.41
2023-01-10T21:49:55.603Z,10.18
2023-01-10T21:52:22.377Z,10.31
2023-01-10T21:54:49.236Z,10.28
2023-01-10T21:57:21.715Z,10.54
2023-01-10T21:59:52.493Z,10.56
2023-01-10T22:02:21.214Z,10.67
2023-01-10T22:04:50.649Z,10.48
2023-01-10T22:07:21.786Z,10.56
2023-01-10T22:09:51.284Z,10.55
2023-01-10T22:12:18.896Z,10.36
2023-01-10T22:14:46.352Z,10.61
2023-01-10T22:17:14.180Z,10.53
2023-01-10T22:19:41.060Z,10.52
2023-01-10T22:22:08.494Z,10.46
2023-01-10T22:24:35.468Z,10.37
2023-01-10T22:27:02.817Z,10.54
2023-01-10T22:29:29.476Z,10.47
2023-01-10T22:31:56.436Z,10.39
2023-01-10T22:34:24.156Z,10.53
2023-01-10T22:36:50.982Z,10.66
2023-01-10T22:39:17.665Z,10.55
2023-01-10T22:41:44.366Z,10.71
2023-01-10T22:44:19.216Z,10.81
2023-01-10T22:46:46.837Z,10.71
2023-01-10T22:49:13.457Z,10.71
2023-01-10T22:51:40.246Z,10.58
2023-01-10T22:54:07.547Z,10.89
2023-01-10T22:56:34.832Z,10.94
2023-01-10T22:59:01.517Z,11.10
2023-01-10T23:01:28.244Z,11.01
2023-01-10T23:03:54.977Z,10.83
2023-01-10T23:06:21.849Z,11.12
2023-01-10T23:08:48.558Z,10.93
2023-01-10T23:11:17.147Z,10.89
2023-01-10T23:13:45.439Z,10.99
2023-01-10T23:16:15.135Z,11.07
2023-01-10T23:18:41.953Z,10.80
2023-01-10T23:21:09.411Z,10.78
2023-01-10T23:23:36.662Z,11.08
2023-01-10T23:26:05.807Z,11.01
2023-01-10T23:28:35.782Z,11.16
2023-01-10T23:31:03.530Z,11.14
2023-01-10T23:33:30.532Z,11.22
2023-01-10T23:35:57.252Z,11.20
2023-01-10T23:38:24.450Z,11.02
2023-01-10T23:40:51.267Z,11.21
2023-01-10T23:43:18.163Z,11.26
2023-01-10T23:45:45.135Z,11.02
2023-01-10T23:48:12.714Z,11.10
2023-01-10T23:50:39.786Z,10.93
2023-01-10T23:53:06.909Z,11.15
2023-01-10T23:55:34.070Z,11.12
2023-01-10T23:58:13.651Z,10.87
